»·PEaware :: DCM717 KPDX-KBFI

DCM717 :: KPDX-KBFI

FLIGHT INFORMATION

Flight Status: Arrived
Operator:
DotCom
More flights by this operator :: More flights under this callsign
Pilot: Ty S. (2873)
Aircraft: MCDONNELL-DOUGLAS MD-88
(MD88)
More flights by this aircraft type
Origin: KPDX Portland Intl
United States
Destination: KBFI Boeing Field/King Co Intl
United States
More flights between these airports :: More routes between these airports
Route: PTLD1 BTG OLM2
File this flight plan on PilotEdge
Remarks: RMK / SIMBRIEF
Altitude:
(Current/Filed)
20,000ft
Speed:
(Current/Filed)
381kts
Departed: 28-Mar-20 12:45 PM
Arrived: 28-Mar-20 01:20 PM
Distance/Time
Traveled:
118nm/0:35
Distance/Time
To Go:
Arrived

Flight Plot

Page will automatically refresh every two minutes.

Flight plan parsing failed; only flown route is shown


Map Options




Map Legend


Flown Route
Filed Route
Departure Airport
Arrival Airport
Navaid (VOR, NDB)
Fix

Horizontal Profiles

Position Reports

Time Latitude Longitude Heading Altitude Ground
Speed
28-Mar-20 12:20 45.586231 -122.580423 339 35ft 0kts
28-Mar-20 12:21 45.586231 -122.580423 339 35ft 0kts
28-Mar-20 12:22 45.586231 -122.580423 339 35ft 0kts
28-Mar-20 12:23 45.586231 -122.580423 339 35ft 0kts
28-Mar-20 12:24 45.586231 -122.580423 339 35ft 0kts
28-Mar-20 12:25 45.586231 -122.580423 339 35ft 0kts
28-Mar-20 12:26 45.586231 -122.580423 339 35ft 0kts
28-Mar-20 12:27 45.586231 -122.580423 339 35ft 0kts
28-Mar-20 12:28 45.586231 -122.580423 339 35ft 0kts
28-Mar-20 12:29 45.586231 -122.580423 339 35ft 0kts
28-Mar-20 12:30 45.586260 -122.580438 339 35ft 1kts
28-Mar-20 12:31 45.587088 -122.581476 302 35ft 6kts
28-Mar-20 12:32 45.587445 -122.582360 298 35ft 9kts
28-Mar-20 12:33 45.588839 -122.585835 301 35ft 8kts
28-Mar-20 12:34 45.590480 -122.589902 299 35ft 13kts
28-Mar-20 12:35 45.592255 -122.594469 299 35ft 7kts
28-Mar-20 12:36 45.593463 -122.597575 298 35ft 8kts
28-Mar-20 12:37 45.593833 -122.597960 352 35ft 0kts
28-Mar-20 12:38 45.594316 -122.597655 42 35ft 0kts
28-Mar-20 12:39 45.594297 -122.597680 42 35ft 0kts
28-Mar-20 12:40 45.594297 -122.597680 42 35ft 0kts
28-Mar-20 12:41 45.594297 -122.597680 42 35ft 0kts
28-Mar-20 12:42 45.594297 -122.597680 42 35ft 0kts
28-Mar-20 12:43 45.594904 -122.595903 116 35ft 0kts
28-Mar-20 12:44 45.586639 -122.574681 121 62ft 154kts
28-Mar-20 12:45 45.565966 -122.513474 117 1866ft 186kts
28-Mar-20 12:46 45.540536 -122.429260 89 3405ft 276kts
28-Mar-20 12:47 45.604309 -122.362653 14 6164ft 315kts
28-Mar-20 12:48 45.680100 -122.374253 299 9857ft 289kts
28-Mar-20 12:49 45.721650 -122.484487 295 11931ft 334kts
28-Mar-20 12:50 45.765830 -122.604833 295 14613ft 347kts
28-Mar-20 12:51 45.809388 -122.725678 295 15261ft 354kts
28-Mar-20 12:52 45.896250 -122.783192 354 17704ft 375kts
28-Mar-20 12:53 46.001433 -122.793244 353 19806ft 383kts
28-Mar-20 12:54 46.101672 -122.804360 353 20101ft 384kts
28-Mar-20 12:55 46.209224 -122.816414 353 20101ft 384kts
28-Mar-20 12:56 46.317066 -122.828511 353 20081ft 385kts
28-Mar-20 12:57 46.422983 -122.840375 353 20034ft 370kts
28-Mar-20 12:58 46.522858 -122.851580 353 20046ft 357kts
28-Mar-20 12:59 46.622020 -122.862709 353 20047ft 358kts
28-Mar-20 13:00 46.722091 -122.873924 352 18706ft 358kts
28-Mar-20 13:01 46.820076 -122.884907 352 17224ft 348kts
28-Mar-20 13:02 46.915084 -122.895551 352 17005ft 344kts
28-Mar-20 13:03 47.008769 -122.863354 42 15037ft 364kts
28-Mar-20 13:04 47.081666 -122.763472 39 13562ft 355kts
28-Mar-20 13:05 47.152528 -122.671809 39 12950ft 338kts
28-Mar-20 13:06 47.221675 -122.582278 39 12960ft 329kts
28-Mar-20 13:08 47.291675 -122.492051 39 11643ft 333kts
28-Mar-20 13:09 47.374852 -122.464858 350 10215ft 316kts
28-Mar-20 13:10 47.463062 -122.472616 356 8727ft 317kts
28-Mar-20 13:11 47.547427 -122.494867 325 7316ft 306kts
28-Mar-20 13:12 47.615181 -122.558072 325 6226ft 253kts
28-Mar-20 13:13 47.673522 -122.596849 21 5028ft 230kts
28-Mar-20 13:14 47.705098 -122.523714 89 3517ft 209kts
28-Mar-20 13:15 47.679655 -122.452628 125 2161ft 189kts
28-Mar-20 13:16 47.646744 -122.396654 150 2116ft 178kts
28-Mar-20 13:17 47.608763 -122.368421 156 1442ft 147kts
28-Mar-20 13:18 47.575835 -122.341229 153 731ft 127kts
28-Mar-20 13:19 47.544416 -122.314547 152 128ft 129kts
28-Mar-20 13:20 47.527111 -122.299454 84 24ft 10kts
28-Mar-20 13:21 47.527880 -122.298430 13 24ft 7kts
28-Mar-20 13:21 47.529884 -122.299416 329 24ft 12kts
28-Mar-20 13:23 47.533853 -122.302751 331 24ft 16kts
28-Mar-20 13:24 47.536372 -122.304495 356 24ft 4kts
28-Mar-20 13:25 47.536828 -122.304679 322 24ft 0kts

Navigation Log

Ident Type
Flight plan parsing failed, navigation log unavailable